AXCGGARGarmin  id=247  GPS 72 Software Version 2.50|2140330771
HFDTE140213
HFPLTPilot:UNREGISTERED
HFTZOTimezone:1
HFSITSite:
HPGTYGliderType:
HPGIDGliderID:
HFDTM100DATUM:WGS-1984
HFCIDCOMPETITIONID:
HFCCLCOMPETITIONCLASS:
LXCG     ICON:C:\Program Files\CompeGPS\symbols\IconsPlay\cronos.ico
LXCG     COLOR:000119119
I00
B1612273747972N00053693WA0000000012
B1612323747971N00053696WA0000000012
B1612353748113N00053972WA0000000011
B1612403748132N00053976WA0000000011
B1612453748151N00053980WA0000000011
B1612503748170N00053986WA0000000011
B1612553748176N00053991WA0000000011
B1613003748182N00053994WA0000000011
B1613053748181N00053994WA0000000011
B1613103748178N00053992WA0000000011
B1613153747936N00053972WA0000000152
B1613203747939N00054013WA0000000152
B1613253747947N00053978WA0000000163
B1613303747944N00053977WA0000000162
B1613353747944N00053977WA0000000161
B1613403747944N00053977WA0000000160
B1613453747942N00053977WA0000000159
B1613503747942N00053976WA0000000157
B1613553747942N00053976WA0000000157
B1614003747943N00053976WA0000000157
B1614053747943N00053976WA0000000157
B1614103747943N00053976WA0000000158
B1614153747943N00053976WA0000000158
B1614203747943N00053976WA0000000158
B1614253747944N00053976WA0000000159
B1614303747944N00053976WA0000000159
B1614353747944N00053977WA0000000160
B1614403747944N00053977WA0000000160
B1614453747943N00053976WA0000000161
B1614503747943N00053976WA0000000162
B1614553747943N00053976WA0000000161
B1615003747942N00053976WA0000000160
B1615053747942N00053976WA0000000160
B1615103747943N00053976WA0000000160
B1615153747943N00053976WA0000000160
B1615203747943N00053976WA0000000160
B1615253747943N00053976WA0000000160
B1615303747943N00053976WA0000000160
B1615353747943N00053976WA0000000160
B1615403747943N00053977WA0000000159
B1615453747943N00053976WA0000000160
B1615503747943N00053976WA0000000161
B1615553747944N00053976WA0000000160
B1616003747943N00053976WA0000000160
B1616053747943N00053976WA0000000160
B1616103747942N00053976WA0000000160
B1616153747942N00053976WA0000000160
B1616203747942N00053976WA0000000160
B1616253747942N00053976WA0000000161
B1616303747942N00053976WA0000000161
B1616353747942N00053976WA0000000161
B1616403747942N00053976WA0000000162
B1616453747942N00053976WA0000000162
B1616503747942N00053976WA0000000161
B1616553747942N00053976WA0000000161
B1617003747942N00053976WA0000000161
B1617053747942N00053976WA0000000160
B1617103747942N00053976WA0000000160
B1617153747942N00053976WA0000000160
B1617203747942N00053976WA0000000160
B1617253747942N00053976WA0000000158
B1617303747943N00053976WA0000000159
B1617353747943N00053976WA0000000160
B1617403747943N00053976WA0000000160
B1617453747943N00053977WA0000000161
B1617503747943N00053977WA0000000161
B1617553747942N00053977WA0000000162
B1618003747942N00053976WA0000000162
B1618053747942N00053977WA0000000162
B1618103747942N00053976WA0000000161
B1618153747941N00053976WA0000000160
B1618203747941N00053976WA0000000161
B1618253747942N00053976WA0000000161
B1618303747942N00053976WA0000000161
B1618353747942N00053976WA0000000162
B1618403747942N00053976WA0000000163
B1618453747942N00053976WA0000000164
B1618503747942N00053976WA0000000163
B1618553747942N00053977WA0000000163
B1619003747942N00053977WA0000000162
B1619053747942N00053977WA0000000163
B1619103747942N00053977WA0000000163
B1619153747942N00053977WA0000000163
B1619203747942N00053977WA0000000163
B1619253747942N00053977WA0000000162
B1619303747942N00053977WA0000000162
B1619353747942N00053977WA0000000161
B1619403747941N00053977WA0000000161
B1619453747941N00053977WA0000000160
B1619503747942N00053977WA0000000161
B1619553747942N00053977WA0000000161
B1620003747942N00053977WA0000000162
B1620053747942N00053977WA0000000162
B1620103747942N00053977WA0000000162
B1620153747942N00053977WA0000000163
B1620203747942N00053977WA0000000163
B1620253747941N00053977WA0000000164
B1620303747942N00053977WA0000000164
B1620353747942N00053977WA0000000163
B1620403747942N00053977WA0000000163
B1620453747942N00053976WA0000000163
B1620503747942N00053976WA0000000164
B1620553747942N00053976WA0000000164
B1621003747942N00053977WA0000000164
B1621053747942N00053977WA0000000164
B1621103747942N00053977WA0000000165
B1621153747942N00053977WA0000000165
B1621203747942N00053976WA0000000166
B1621253747942N00053976WA0000000166
B1621303747942N00053976WA0000000167
B1621353747943N00053976WA0000000168
B1621403747943N00053976WA0000000167
B1621453747943N00053976WA0000000166
B1621503747943N00053976WA0000000166
B1621553747943N00053976WA0000000165
B1622003747943N00053976WA0000000165
B1622053747943N00053976WA0000000165
B1622103747943N00053976WA0000000165
B1622153747944N00053975WA0000000165
B1622203747948N00053972WA0000000165
B1622253747948N00053973WA0000000165
B1622303747947N00053973WA0000000167
B1622353747947N00053973WA0000000166
B1622403747947N00053973WA0000000166
B1622453747947N00053973WA0000000165
B1622503747947N00053973WA0000000165
B1622553747947N00053973WA0000000165
B1623003747947N00053973WA0000000164
B1623053747948N00053973WA0000000165
B1623103747948N00053974WA0000000165
B1623153747948N00053974WA0000000166
B1623203747948N00053974WA0000000167
B1623253747948N00053974WA0000000166
B1623303747949N00053974WA0000000167
B1623353747949N00053973WA0000000167
B1623403747949N00053974WA0000000167
B1623453747949N00053973WA0000000168
B1623503747949N00053973WA0000000168
B1623553747949N00053973WA0000000169
B1624003747949N00053973WA0000000168
B1624053747949N00053973WA0000000168
B1624103747949N00053973WA0000000168
B1624153747949N00053973WA0000000167
B1624203747949N00053974WA0000000167
B1624253747948N00053974WA0000000167
B1624303747947N00053974WA0000000166
B1624353747946N00053975WA0000000165
B1624403747945N00053977WA0000000165
B1624453747946N00053975WA0000000165
B1624503747945N00053974WA0000000164
B1624553747945N00053974WA0000000164
B1625003747945N00053975WA0000000163
B1625053747945N00053974WA0000000164
B1625103747945N00053975WA0000000164
B1625153747945N00053975WA0000000165
B1625203747945N00053976WA0000000164
B1625253747943N00053976WA0000000164
B1625303747943N00053976WA0000000164
B1625353747943N00053976WA0000000165
B1625403747943N00053977WA0000000164
B1625453747943N00053977WA0000000164
B1625503747943N00053977WA0000000164
B1625553747943N00053977WA0000000165
B1626003747943N00053977WA0000000164
B1626053747943N00053976WA0000000163
B1626103747942N00053976WA0000000164
B1626153747942N00053976WA0000000164
B1626203747942N00053977WA0000000164
B1626253747943N00053977WA0000000163
B1626303747943N00053977WA0000000163
B1626353747943N00053977WA0000000165
B1626403747943N00053977WA0000000166
B1626453747943N00053977WA0000000167
B1626503747944N00053977WA0000000166
B1626553747944N00053978WA0000000165
B1627003747944N00053977WA0000000164
B1627053747944N00053977WA0000000163
B1627103747944N00053977WA0000000163
B1627153747944N00053977WA0000000163
B1627203747944N00053977WA0000000163
B1627253747944N00053977WA0000000164
B1627303747943N00053977WA0000000164
B1627353747943N00053977WA0000000164
B1627403747943N00053977WA0000000165
B1627453747945N00053976WA0000000164
B1627503747945N00053975WA0000000164
B1627553747945N00053975WA0000000163
B1628003747946N00053975WA0000000163
B1628053747945N00053975WA0000000163
B1628103747945N00053975WA0000000163
B1628153747946N00053975WA0000000163
B1628203747945N00053975WA0000000163
B1628253747944N00053975WA0000000162
B1628303747943N00053975WA0000000162
B1628353747942N00053975WA0000000161
B1628403747943N00053976WA0000000161
B1628453747943N00053976WA0000000162
B1628503747943N00053976WA0000000163
B1628553747943N00053976WA0000000163
B1629003747942N00053976WA0000000162
B1629053747942N00053976WA0000000162
B1629103747942N00053976WA0000000162
B1629153747942N00053976WA0000000162
B1629203747942N00053976WA0000000162
B1629253747943N00053976WA0000000162
B1629303747943N00053976WA0000000163
B1629353747943N00053976WA0000000163
B1629403747943N00053976WA0000000163
B1629453747943N00053976WA0000000163
B1629503747942N00053976WA0000000163
B1629553747942N00053976WA0000000163
B1630003747942N00053976WA0000000162
B1630053747942N00053976WA0000000162
B1630103747942N00053976WA0000000162
B1630153747942N00053976WA0000000160
B1630203747943N00053976WA0000000159
B1630253747942N00053976WA0000000159
B1630303747942N00053976WA0000000159
B1630353747942N00053976WA0000000158
B1630403747943N00053976WA0000000158
B1630453747944N00053975WA0000000158
B1630503747942N00053976WA0000000160
B1630553747935N00053980WA0000000165
B1631003747927N00053972WA0000000171
B1631053747918N00053968WA0000000176
B1631103747913N00053979WA0000000178
B1631153747921N00053998WA0000000182
B1631203747914N00053994WA0000000185
B1631253747921N00053960WA0000000188
B1631303747932N00053923WA0000000190
B1631353747929N00053891WA0000000193
B1631403747922N00053868WA0000000198
B1631453747918N00053873WA0000000203
B1631503747918N00053886WA0000000206
B1631553747911N00053890WA0000000210
B1632003747904N00053894WA0000000212
B1632053747895N00053885WA0000000215
B1632103747887N00053878WA0000000220
B1632153747884N00053888WA0000000221
B1632203747900N00053906WA0000000221
B1632253747904N00053922WA0000000225
B1632303747895N00053912WA0000000225
B1632353747895N00053879WA0000000227
B1632403747888N00053862WA0000000229
B1632453747886N00053871WA0000000230
B1632503747909N00053883WA0000000229
B1632553747925N00053900WA0000000232
B1633003747922N00053902WA0000000234
B1633053747918N00053879WA0000000237
B1633103747911N00053869WA0000000241
B1633153747917N00053884WA0000000244
B1633203747923N00053897WA0000000247
B1633253747919N00053880WA0000000250
B1633303747915N00053864WA0000000254
B1633353747914N00053872WA0000000256
B1633403747923N00053890WA0000000258
B1633453747920N00053884WA0000000257
B1633503747923N00053856WA0000000255
B1633553747925N00053826WA0000000252
B1634003747926N00053793WA0000000250
B1634053747921N00053764WA0000000258
B1634103747917N00053748WA0000000260
B1634153747910N00053753WA0000000263
B1634203747919N00053775WA0000000263
B1634253747929N00053797WA0000000262
B1634303747929N00053812WA0000000257
B1634353747923N00053801WA0000000257
B1634403747923N00053774WA0000000256
B1634453747922N00053742WA0000000255
B1634503747922N00053711WA0000000254
B1634553747919N00053681WA0000000252
B1635003747915N00053655WA0000000252
B1635053747910N00053628WA0000000250
B1635103747906N00053600WA0000000246
B1635153747901N00053570WA0000000241
B1635203747894N00053552WA0000000242
B1635253747899N00053564WA0000000238
B1635303747907N00053582WA0000000233
B1635353747908N00053598WA0000000227
B1635403747908N00053614WA0000000229
B1635453747903N00053624WA0000000229
B1635503747900N00053632WA0000000230
B1635553747899N00053646WA0000000228
B1636003747901N00053665WA0000000223
B1636053747904N00053686WA0000000217
B1636103747905N00053708WA0000000217
B1636153747904N00053722WA0000000214
B1636203747904N00053738WA0000000215
B1636253747905N00053755WA0000000211
B1636303747907N00053770WA0000000212
B1636353747906N00053784WA0000000213
B1636403747902N00053791WA0000000213
B1636453747897N00053796WA0000000212
B1636503747898N00053811WA0000000211
B1636553747901N00053828WA0000000206
B1637003747905N00053848WA0000000205
B1637053747911N00053868WA0000000206
B1637103747912N00053886WA0000000208
B1637153747907N00053895WA0000000213
B1637203747895N00053890WA0000000219
B1637253747886N00053887WA0000000220
B1637303747889N00053901WA0000000216
B1637353747913N00053918WA0000000212
B1637403747933N00053940WA0000000212
B1637453747930N00053949WA0000000215
B1637503747920N00053940WA0000000215
B1637553747909N00053926WA0000000215
B1638003747899N00053905WA0000000215
B1638053747889N00053895WA0000000216
B1638103747891N00053911WA0000000216
B1638153747883N00053915WA0000000216
B1638203747876N00053923WA0000000214
B1638253747869N00053937WA0000000213
B1638303747861N00053947WA0000000211
B1638353747855N00053958WA0000000211
B1638403747848N00053968WA0000000209
B1638453747841N00053979WA0000000207
B1638503747835N00053989WA0000000204
B1638553747832N00054004WA0000000202
B1639003747829N00054021WA0000000199
B1639053747829N00054039WA0000000194
B1639103747830N00054056WA0000000190
B1639153747831N00054075WA0000000187
B1639203747837N00054094WA0000000183
B1639253747847N00054113WA0000000184
B1639303747855N00054131WA0000000186
B1639353747865N00054151WA0000000189
B1639403747876N00054171WA0000000192
B1639453747886N00054195WA0000000199
B1639503747903N00054214WA0000000204
B1639553747917N00054234WA0000000211
B1640003747914N00054240WA0000000214
B1640053747906N00054222WA0000000218
B1640103747901N00054196WA0000000221
B1640153747893N00054172WA0000000226
B1640203747883N00054155WA0000000227
B1640253747881N00054161WA0000000227
B1640303747896N00054178WA0000000230
B1640353747898N00054193WA0000000232
B1640403747890N00054184WA0000000234
B1640453747884N00054159WA0000000239
B1640503747877N00054158WA0000000242
B1640553747893N00054177WA0000000245
B1641003747912N00054195WA0000000248
B1641053747914N00054209WA0000000251
B1641103747908N00054198WA0000000252
B1641153747903N00054176WA0000000254
B1641203747895N00054164WA0000000256
B1641253747891N00054173WA0000000258
B1641303747895N00054189WA0000000260
B1641353747889N00054195WA0000000260
B1641403747885N00054207WA0000000261
B1641453747883N00054219WA0000000257
B1641503747882N00054236WA0000000258
B1641553747880N00054248WA0000000261
B1642003747878N00054261WA0000000262
B1642053747877N00054276WA0000000258
B1642103747874N00054292WA0000000258
B1642153747875N00054308WA0000000255
B1642203747875N00054326WA0000000250
B1642253747874N00054344WA0000000246
B1642303747873N00054360WA0000000241
B1642353747875N00054378WA0000000238
B1642403747882N00054400WA0000000232
B1642453747895N00054420WA0000000229
B1642503747904N00054442WA0000000228
B1642553747912N00054463WA0000000227
B1643003747917N00054485WA0000000230
B1643053747917N00054503WA0000000230
B1643103747910N00054506WA0000000229
B1643153747907N00054480WA0000000229
B1643203747915N00054446WA0000000229
B1643253747908N00054424WA0000000228
B1643303747910N00054439WA0000000226
B1643353747925N00054457WA0000000227
B1643403747941N00054477WA0000000227
B1643453747958N00054498WA0000000229
B1643503747976N00054517WA0000000231
B1643553747998N00054534WA0000000232
B1644003748018N00054553WA0000000235
B1644053748033N00054575WA0000000236
B1644103748034N00054595WA0000000242
B1644153748030N00054610WA0000000243
B1644203748029N00054631WA0000000251
B1644253748033N00054652WA0000000253
B1644303748035N00054676WA0000000256
B1644353748025N00054686WA0000000262
B1644403748015N00054692WA0000000266
B1644453748008N00054696WA0000000271
B1644503748001N00054705WA0000000269
B1644553747993N00054693WA0000000267
B1645003748001N00054662WA0000000269
B1645053748006N00054633WA0000000271
B1645103748009N00054603WA0000000272
B1645153748012N00054572WA0000000270
B1645203748018N00054538WA0000000268
B1645253748014N00054510WA0000000269
B1645303748004N00054511WA0000000272
B1645353747996N00054516WA0000000275
B1645403747989N00054519WA0000000276
B1645453747998N00054537WA0000000278
B1645503748015N00054558WA0000000274
B1645553748017N00054577WA0000000275
B1646003748014N00054599WA0000000280
B1646053748013N00054619WA0000000286
B1646103748013N00054636WA0000000292
B1646153748009N00054653WA0000000294
B1646203748004N00054670WA0000000296
B1646253748004N00054688WA0000000299
B1646303748007N00054708WA0000000305
B1646353748005N00054723WA0000000307
B1646403748001N00054730WA0000000304
B1646453748000N00054710WA0000000298
B1646503748014N00054678WA0000000294
B1646553748015N00054649WA0000000290
B1647003748002N00054635WA0000000293
B1647053747990N00054644WA0000000295
B1647103747981N00054656WA0000000294
B1647153747984N00054677WA0000000293
B1647203747992N00054694WA0000000292
B1647253747992N00054708WA0000000292
B1647303747992N00054720WA0000000291
B1647353747988N00054725WA0000000294
B1647403747987N00054704WA0000000295
B1647453747997N00054672WA0000000294
B1647503747994N00054646WA0000000299
B1647553747991N00054623WA0000000299
B1648003747985N00054618WA0000000299
B1648053747989N00054636WA0000000296
B1648103748004N00054658WA0000000294
B1648153748007N00054680WA0000000296
B1648203748007N00054698WA0000000299
B1648253748005N00054711WA0000000305
B1648303748002N00054724WA0000000302
B1648353748003N00054736WA0000000300
B1648403748002N00054750WA0000000302
B1648453748004N00054762WA0000000297
B1648503748004N00054776WA0000000298
B1648553748001N00054785WA0000000299
B1649003748000N00054790WA0000000297
B1649053748000N00054795WA0000000295
B1649103747996N00054794WA0000000289
B1649153747989N00054783WA0000000288
B1649203747983N00054791WA0000000283
B1649253747985N00054811WA0000000279
B1649303747981N00054827WA0000000279
B1649353747975N00054837WA0000000280
B1649403747966N00054845WA0000000287
B1649453747959N00054859WA0000000292
B1649503747950N00054868WA0000000298
B1649553747940N00054867WA0000000302
B1650003747933N00054870WA0000000301
B1650053747941N00054892WA0000000301
B1650103747956N00054913WA0000000300
B1650153747968N00054934WA0000000298
B1650203747974N00054954WA0000000300
B1650253747975N00054959WA0000000299
B1650303747972N00054957WA0000000297
B1650353747968N00054947WA0000000301
B1650403747963N00054938WA0000000301
B1650453747953N00054926WA0000000303
B1650503747947N00054924WA0000000303
B1650553747940N00054918WA0000000308
B1651003747936N00054904WA0000000309
B1651053747933N00054893WA0000000309
B1651103747930N00054883WA0000000303
B1651153747928N00054869WA0000000301
B1651203747925N00054851WA0000000297
B1651253747923N00054829WA0000000295
B1651303747920N00054810WA0000000295
B1651353747921N00054785WA0000000298
B1651403747920N00054773WA0000000297
B1651453747917N00054764WA0000000299
B1651503747910N00054754WA0000000301
B1651553747906N00054741WA0000000307
B1652003747905N00054732WA0000000311
B1652053747906N00054731WA0000000311
B1652103747906N00054718WA0000000309
B1652153747908N00054697WA0000000309
B1652203747907N00054685WA0000000309
B1652253747907N00054684WA0000000304
B1652303747906N00054681WA0000000305
B1652353747906N00054671WA0000000302
B1652403747907N00054650WA0000000301
B1652453747905N00054631WA0000000298
B1652503747902N00054616WA0000000295
B1652553747897N00054613WA0000000294
B1653003747892N00054613WA0000000297
B1653053747887N00054606WA0000000301
B1653103747884N00054599WA0000000300
B1653153747882N00054595WA0000000301
B1653203747882N00054596WA0000000302
B1653253747900N00054613WA0000000302
B1653303747940N00054614WA0000000301
B1653353747967N00054584WA0000000301
B1653403747969N00054562WA0000000301
B1653453747965N00054556WA0000000303
B1653503747961N00054553WA0000000306
B1653553747957N00054551WA0000000309
B1654003747954N00054549WA0000000310
B1654053747951N00054546WA0000000311
B1654103747947N00054544WA0000000312
B1654153747942N00054542WA0000000314
B1654203747939N00054538WA0000000314
B1654253747936N00054533WA0000000312
B1654303747931N00054526WA0000000311
B1654353747926N00054523WA0000000312
B1654403747925N00054518WA0000000314
B1654453747922N00054517WA0000000314
B1654503747919N00054516WA0000000314
B1654553747915N00054517WA0000000314
B1655003747912N00054515WA0000000314
B1655053747910N00054512WA0000000315
B1655103747908N00054506WA0000000317
B1655153747906N00054502WA0000000319
B1655203747904N00054499WA0000000318
B1655253747901N00054499WA0000000319
B1655303747898N00054499WA0000000319
B1655353747895N00054499WA0000000319
B1655403747893N00054502WA0000000321
B1655453747892N00054504WA0000000323
B1655503747892N00054505WA0000000325
B1655553747889N00054503WA0000000328
B1656003747886N00054500WA0000000330
B1656053747885N00054501WA0000000331
B1656103747883N00054502WA0000000331
B1656153747884N00054501WA0000000332
B1656203747884N00054496WA0000000334
B1656253747884N00054492WA0000000334
B1656303747886N00054491WA0000000336
B1656353747888N00054489WA0000000337
B1656403747890N00054485WA0000000338
B1656453747891N00054481WA0000000340
B1656503747894N00054479WA0000000341
B1656553747896N00054477WA0000000342
B1657003747898N00054477WA0000000343
B1657053747901N00054477WA0000000344
B1657103747900N00054473WA0000000344
B1657153747898N00054473WA0000000345
B1657203747899N00054472WA0000000348
B1657253747899N00054470WA0000000349
B1657303747900N00054466WA0000000351
B1657353747903N00054466WA0000000352
B1657403747905N00054465WA0000000352
B1657453747906N00054462WA0000000353
B1657503747904N00054461WA0000000352
B1657553747903N00054463WA0000000353
B1658003747904N00054466WA0000000356
B1658053747904N00054467WA0000000357
B1658103747903N00054467WA0000000356
B1658153747901N00054467WA0000000357
B1658203747899N00054468WA0000000358
B1658253747899N00054471WA0000000360
B1658303747898N00054473WA0000000360
B1658353747898N00054475WA0000000360
B1658403747897N00054479WA0000000359
B1658453747897N00054482WA0000000359
B1658503747896N00054483WA0000000358
B1658553747895N00054484WA0000000356
B1659003747893N00054483WA0000000355
B1659053747891N00054482WA0000000354
B1659103747888N00054484WA0000000351
B1659153747885N00054489WA0000000349
B1659203747883N00054494WA0000000346
B1659253747879N00054496WA0000000341
B1659303747873N00054497WA0000000339
B1659353747869N00054497WA0000000339
B1659403747866N00054498WA0000000338
B1659453747861N00054503WA0000000335
B1659503747859N00054510WA0000000331
B1659553747858N00054507WA0000000332
B1700003747854N00054504WA0000000331
B1700053747851N00054501WA0000000330
B1700103747849N00054499WA0000000327
B1700153747847N00054501WA0000000327
B1700203747843N00054501WA0000000325
B1700253747837N00054498WA0000000322
B1700303747833N00054496WA0000000320
B1700353747830N00054495WA0000000323
B1700403747828N00054496WA0000000321
B1700453747827N00054498WA0000000318
B1700503747823N00054492WA0000000317
B1700553747817N00054481WA0000000316
B1701003747813N00054468WA0000000316
B1701053747811N00054463WA0000000314
B1701103747808N00054457WA0000000312
B1701153747805N00054449WA0000000310
B1701203747803N00054443WA0000000307
B1701253747796N00054439WA0000000300
B1701303747791N00054441WA0000000297
B1701353747787N00054446WA0000000293
B1701403747782N00054452WA0000000289
B1701453747777N00054460WA0000000285
B1701503747772N00054467WA0000000280
B1701553747766N00054468WA0000000278
B1702003747759N00054468WA0000000272
B1702053747751N00054469WA0000000266
B1702103747742N00054471WA0000000262
B1702153747736N00054472WA0000000259
B1702203747734N00054467WA0000000254
B1702253747735N00054440WA0000000250
B1702303747739N00054408WA0000000246
B1702353747744N00054373WA0000000244
B1702403747752N00054338WA0000000241
B1702453747781N00054303WA0000000239
B1702503747817N00054277WA0000000238
B1702553747847N00054248WA0000000236
B1703003747866N00054213WA0000000238
B1703053747868N00054186WA0000000237
B1703103747864N00054192WA0000000236
B1703153747875N00054209WA0000000235
B1703203747892N00054231WA0000000235
B1703253747900N00054247WA0000000238
B1703303747897N00054243WA0000000240
B1703353747896N00054218WA0000000241
B1703403747891N00054193WA0000000241
B1703453747886N00054176WA0000000243
B1703503747878N00054174WA0000000241
B1703553747870N00054170WA0000000242
B1704003747862N00054167WA0000000241
B1704053747854N00054161WA0000000244
B1704103747845N00054156WA0000000246
B1704153747838N00054152WA0000000245
B1704203747830N00054150WA0000000241
B1704253747821N00054147WA0000000239
B1704303747813N00054145WA0000000236
B1704353747803N00054146WA0000000230
B1704403747794N00054155WA0000000229
B1704453747786N00054163WA0000000230
B1704503747779N00054165WA0000000226
B1704553747772N00054168WA0000000222
B1705003747766N00054172WA0000000219
B1705053747759N00054173WA0000000214
B1705103747750N00054170WA0000000214
B1705153747741N00054164WA0000000209
B1705203747732N00054165WA0000000204
B1705253747723N00054168WA0000000204
B1705303747718N00054172WA0000000202
B1705353747718N00054183WA0000000200
B1705403747734N00054202WA0000000195
B1705453747769N00054208WA0000000189
B1705503747808N00054201WA0000000184
B1705553747845N00054196WA0000000181
B1706003747871N00054211WA0000000183
B1706053747891N00054229WA0000000184
B1706103747906N00054249WA0000000188
B1706153747899N00054249WA0000000192
B1706203747891N00054230WA0000000198
B1706253747882N00054217WA0000000202
B1706303747880N00054189WA0000000206
B1706353747876N00054161WA0000000210
B1706403747870N00054138WA0000000215
B1706453747867N00054141WA0000000211
B1706503747876N00054156WA0000000208
B1706553747879N00054173WA0000000211
B1707003747880N00054188WA0000000216
B1707053747878N00054203WA0000000219
B1707103747877N00054218WA0000000223
B1707153747876N00054230WA0000000226
B1707203747874N00054235WA0000000228
B1707253747866N00054238WA0000000232
B1707303747862N00054235WA0000000236
B1707353747856N00054227WA0000000236
B1707403747853N00054234WA0000000237
B1707453747850N00054236WA0000000239
B1707503747845N00054233WA0000000238
B1707553747842N00054230WA0000000240
B1708003747843N00054236WA0000000239
B1708053747850N00054249WA0000000239
B1708103747849N00054258WA0000000238
B1708153747843N00054256WA0000000238
B1708203747836N00054242WA0000000239
B1708253747832N00054240WA0000000235
B1708303747849N00054255WA0000000230
B1708353747880N00054260WA0000000229
B1708403747896N00054278WA0000000229
B1708453747892N00054277WA0000000230
B1708503747883N00054270WA0000000228
B1708553747876N00054259WA0000000227
B1709003747869N00054243WA0000000228
B1709053747862N00054229WA0000000231
B1709103747857N00054213WA0000000235
B1709153747852N00054201WA0000000236
B1709203747850N00054199WA0000000233
B1709253747848N00054194WA0000000234
B1709303747847N00054169WA0000000235
B1709353747846N00054166WA0000000234
B1709403747865N00054184WA0000000235
B1709453747880N00054200WA0000000238
B1709503747879N00054199WA0000000240
B1709553747879N00054179WA0000000244
B1710003747877N00054164WA0000000246
B1710053747877N00054166WA0000000249
B1710103747875N00054166WA0000000250
B1710153747872N00054154WA0000000250
B1710203747873N00054159WA0000000251
B1710253747893N00054176WA0000000253
B1710303747904N00054189WA0000000257
B1710353747903N00054188WA0000000259
B1710403747901N00054185WA0000000259
B1710453747902N00054191WA0000000261
B1710503747902N00054194WA0000000264
B1710553747899N00054194WA0000000264
B1711003747895N00054191WA0000000265
B1711053747889N00054189WA0000000266
B1711103747887N00054191WA0000000267
B1711153747880N00054193WA0000000270
B1711203747880N00054192WA0000000275
B1711253747877N00054192WA0000000276
B1711303747874N00054188WA0000000276
B1711353747872N00054185WA0000000277
B1711403747871N00054182WA0000000277
B1711453747867N00054179WA0000000278
B1711503747862N00054173WA0000000276
B1711553747856N00054167WA0000000277
B1712003747850N00054162WA0000000277
B1712053747842N00054158WA0000000276
B1712103747835N00054152WA0000000278
B1712153747828N00054147WA0000000276
B1712203747820N00054140WA0000000273
B1712253747812N00054132WA0000000271
B1712303747804N00054123WA0000000268
B1712353747795N00054116WA0000000266
B1712403747789N00054110WA0000000263
B1712453747781N00054105WA0000000257
B1712503747773N00054096WA0000000252
B1712553747764N00054083WA0000000249
B1713003747754N00054073WA0000000248
B1713053747743N00054063WA0000000245
B1713103747731N00054055WA0000000241
B1713153747720N00054045WA0000000238
B1713203747709N00054035WA0000000233
B1713253747698N00054024WA0000000227
B1713303747687N00054018WA0000000222
B1713353747675N00054009WA0000000214
B1713403747663N00054000WA0000000207
B1713453747651N00053992WA0000000202
B1713503747639N00053984WA0000000196
B1713553747628N00053973WA0000000192
B1714003747619N00053957WA0000000186
B1714053747634N00053925WA0000000177
B1714103747672N00053920WA0000000172
B1714153747708N00053918WA0000000165
B1714203747741N00053924WA0000000157
B1714253747774N00053932WA0000000152
B1714303747809N00053931WA0000000146
B1714353747845N00053923WA0000000142
B1714403747880N00053916WA0000000138
B1714453747903N00053927WA0000000140
B1714503747893N00053928WA0000000146
B1714553747883N00053925WA0000000146
B1715003747893N00053938WA0000000149
B1715053747891N00053952WA0000000152
B1715103747885N00053940WA0000000155
B1715153747876N00053919WA0000000157
B1715203747870N00053902WA0000000159
B1715253747881N00053915WA0000000159
B1715303747904N00053929WA0000000162
B1715353747914N00053947WA0000000165
B1715403747923N00053963WA0000000168
B1715453747917N00053958WA0000000172
B1715503747919N00053927WA0000000175
B1715553747915N00053905WA0000000178
B1716003747916N00053915WA0000000181
B1716053747925N00053930WA0000000182
B1716103747927N00053940WA0000000189
B1716153747925N00053949WA0000000191
B1716203747920N00053953WA0000000192
B1716253747916N00053928WA0000000195
B1716303747913N00053902WA0000000198
B1716353747910N00053899WA0000000198
B1716403747928N00053916WA0000000201
B1716453747925N00053926WA0000000204
B1716503747916N00053919WA0000000210
B1716553747910N00053915WA0000000210
B1717003747914N00053930WA0000000212
B1717053747913N00053940WA0000000210
B1717103747910N00053913WA0000000212
B1717153747912N00053881WA0000000210
B1717203747921N00053845WA0000000211
B1717253747944N00053809WA0000000212
B1717303747957N00053772WA0000000213
B1717353747958N00053745WA0000000212
B1717403747958N00053753WA0000000210
B1717453747960N00053764WA0000000211
B1717503747956N00053772WA0000000209
B1717553747953N00053779WA0000000210
B1718003747947N00053776WA0000000209
B1718053747947N00053743WA0000000205
B1718103747950N00053705WA0000000205
B1718153747954N00053668WA0000000202
B1718203747954N00053629WA0000000202
B1718253747953N00053594WA0000000204
B1718303747944N00053578WA0000000205
B1718353747940N00053583WA0000000202
B1718403747943N00053600WA0000000199
B1718453747948N00053618WA0000000197
B1718503747954N00053638WA0000000195
B1718553747956N00053655WA0000000195
B1719003747956N00053671WA0000000193
B1719053747956N00053685WA0000000193
B1719103747954N00053700WA0000000195
B1719153747953N00053713WA0000000192
B1719203747952N00053725WA0000000191
B1719253747948N00053738WA0000000189
B1719303747941N00053749WA0000000190
B1719353747936N00053759WA0000000191
B1719403747929N00053769WA0000000190
B1719453747924N00053777WA0000000188
B1719503747915N00053781WA0000000187
B1719553747908N00053785WA0000000184
B1720003747902N00053791WA0000000183
B1720053747897N00053800WA0000000178
B1720103747888N00053804WA0000000173
B1720153747878N00053804WA0000000170
B1720203747866N00053805WA0000000166
B1720253747853N00053802WA0000000162
B1720303747846N00053812WA0000000161
B1720353747852N00053828WA0000000158
B1720403747850N00053838WA0000000152
B1720453747839N00053833WA0000000149
B1720503747828N00053833WA0000000144
B1720553747818N00053834WA0000000141
B1721003747809N00053837WA0000000134
B1721053747800N00053842WA0000000128
B1721103747791N00053850WA0000000124
B1721153747780N00053854WA0000000118
B1721203747769N00053860WA0000000112
B1721253747758N00053865WA0000000110
B1721303747770N00053880WA0000000101
B1721353747797N00053892WA0000000098
B1721403747812N00053906WA0000000090
B1721453747807N00053921WA0000000082
B1721503747799N00053937WA0000000077
B1721553747791N00053950WA0000000071
B1722003747782N00053966WA0000000067
B1722053747776N00053975WA0000000065
LXCG     VERSION:5.7
GAA23DE95B18C4458E9E0395BEF1B610084724E902C7F498FB13761244CE8B948CCB42
GCE01A48A6A886D44A11A9477D470606CE140DDCC7855B54306428EEE68D1F9B8D2E
G37A6CC226C58B8A8086EC1FF36324431DE6006E885B863E88C307BED55A96BBCF7A
GD7A52ADC220923B69BE54A6642E6A28B83801844100D906DCA4C84AAF8CBC